Atmospheric History
07/18/2018 13:28  to  7/19/2018 13:28
Change End Date:
To complete the export process:
1) Select all of the data below
2) Copy the data to the clipboard
3) Open a word processor such as Notepad
4) Paste the data into the word processor
5) Save the file

Date/Time (MST), AirTemp, RH, Dewpoint ,AvgWindSpeed, GustWindSpeed, WindDirection, PrecipType, PrecipIntensity, PrecipAccumulation, PrecipRate
07/19/2018 13:27, 80, 21, 37 ,8, 11, NW, None, None, ,  
07/19/2018 13:21, 80, 21, 37 ,5, 11, NW, None, None, ,  
07/19/2018 13:12, 80, 20, 36 ,9, 12, NW, None, None, ,  
07/19/2018 13:11, 79, 21, 37 ,7, 11, NW, None, None, ,  
07/19/2018 13:01, 79, 22, 37 ,7, 10, NW, None, None, ,  
07/19/2018 12:57, 78, 22, 36 ,6, 10, NW, None, None, ,  
07/19/2018 12:51, 79, 21, 36 ,6, 11, NW, None, None, ,  
07/19/2018 12:42, 78, 21, 35 ,7, 10, NW, None, None, ,  
07/19/2018 12:41, 78, 22, 37 ,7, 10, NW, None, None, ,  
07/19/2018 12:31, 78, 22, 37 ,6, 7, NW, None, None, ,  
07/19/2018 12:27, 79, 22, 37 ,5, 7, NW, None, None, ,  
07/19/2018 12:20, 79, 22, 37 ,6, 7, NW, None, None, ,  
07/19/2018 12:12, 78, 22, 36 ,2, 5, NW, None, None, ,  
07/19/2018 12:10, 78, 23, 37 ,1, 4, N, None, None, ,  
07/19/2018 12:00, 79, 23, 39 ,4, 6, NW, None, None, ,  
07/19/2018 11:57, 78, 21, 36 ,1, 4, NW, None, None, ,  
07/19/2018 11:50, 77, 21, 35 ,0, 2, E, None, None, ,  
07/19/2018 11:42, 78, 22, 36 ,1, 2, E, None, None, ,  
07/19/2018 11:40, 78, 24, 38 ,0, 2, W, None, None, ,  
07/19/2018 11:30, 76, 21, 35 ,1, 4, NW, None, None, ,  
07/19/2018 11:27, 76, 21, 33 ,1, 4, NW, None, None, ,  
07/19/2018 11:20, 76, 27, 40 ,1, 3, NW, None, None, ,  
07/19/2018 11:12, 74, 29, 40 ,1, 3, NW, None, None, ,  
07/19/2018 11:10, 74, 31, 42 ,1, 2, NW, None, None, ,  
07/19/2018 11:00, 72, 33, 42 ,0, 1, S, None, None, ,  
07/19/2018 10:57, 71, 31, 40 ,0, 2, E, None, None, ,  
07/19/2018 10:50, 69, 34, 40 ,1, 2, SE, None, None, ,  
07/19/2018 10:42, 68, 38, 42 ,1, 3, SE, None, None, ,  
07/19/2018 10:40, 67, 40, 42 ,2, 3, SE, None, None, ,  
07/19/2018 10:30, 67, 43, 44 ,1, 2, SE, None, None, ,  
07/19/2018 10:20, 65, 47, 44 ,1, 3, SE, None, None, ,  
07/19/2018 10:12, 64, 47, 43 ,2, 3, S, None, None, ,  
07/19/2018 10:10, 64, 48, 44 ,1, 2, S, None, None, ,  
07/19/2018 10:00, 63, 51, 45 ,1, 2, SE, None, None, ,  
07/19/2018 09:50, 61, 55, 44 ,1, 2, SE, None, None, ,  
07/19/2018 09:42, 60, 57, 45 ,1, 2, SE, None, None, ,  
07/19/2018 09:40, 60, 57, 45 ,0, 2, SE, None, None, ,  
07/19/2018 09:29, 57, 61, 43 ,1, 2, SE, None, None, ,  
07/19/2018 09:27, 56, 61, 43 ,2, 2, E, None, None, ,  
07/19/2018 09:19, 56, 65, 44 ,1, 2, E, None, None, ,  
07/19/2018 09:09, 52, 73, 44 ,0, 2, E, None, None, ,  
07/19/2018 08:59, 48, 81, 42 ,2, 3, E, None, None, ,  
07/19/2018 08:57, 47, 81, 42 ,2, 3, SE, None, None, ,  
07/19/2018 08:49, 46, 87, 42 ,1, 2, E, None, None, ,  
07/19/2018 08:39, 45, 88, 42 ,0, 1, SE, None, None, ,  
07/19/2018 08:29, 44, 91, 42 ,1, 2, S, None, None, ,  
07/19/2018 08:27, 44, 89, 41 ,1, 1, S, None, None, ,  
07/19/2018 08:19, 44, 91, 41 ,0, 0, S, None, None, ,  
07/19/2018 08:12, 43, 92, 41 ,0, 0, N, None, None, ,  
07/19/2018 08:09, 43, 93, 42 ,0, 0, NW, None, None, ,  
07/19/2018 07:59, 43, 93, 41 ,0, 1, S, None, None, ,  
07/19/2018 07:58, 43, 93, 41 ,0, 1, S, None, None, ,  
07/19/2018 07:49, 42, 94, 41 ,0, 1, SE, None, None, ,  
07/19/2018 07:42, 42, 94, 40 ,0, 0, S, None, None, ,  
07/19/2018 07:39, 42, 94, 40 ,0, 0, S, None, None, ,  
07/19/2018 07:29, 42, 94, 40 ,0, 0, S, None, None, ,  
07/19/2018 07:27, 42, 95, 40 ,0, 0, S, None, None, ,  
07/19/2018 07:19, 42, 95, 40 ,0, 1, W, None, None, ,  
07/19/2018 07:11, 42, 93, 40 ,0, 0, E, None, None, ,  
07/19/2018 07:08, 42, 93, 40 ,0, 1, N, None, None, ,  
07/19/2018 06:58, 42, 91, 39 ,2, 3, NW, None, None, ,  
07/19/2018 06:56, 42, 91, 39 ,1, 2, NW, None, None, ,  
07/19/2018 06:48, 42, 92, 40 ,1, 2, NW, None, None, ,  
07/19/2018 06:41, 42, 95, 40 ,1, 3, NW, None, None, ,  
07/19/2018 06:38, 42, 95, 40 ,1, 3, NW, None, None, ,  
07/19/2018 06:28, 41, 95, 40 ,0, 0, S, None, None, ,  
07/19/2018 06:26, 41, 94, 39 ,0, 0, SW, None, None, ,  
07/19/2018 06:18, 41, 93, 39 ,0, 0, S, None, None, ,  
07/19/2018 06:12, 41, 90, 39 ,0, 4, W, None, None, ,  
07/19/2018 06:08, 42, 89, 38 ,1, 4, NW, None, None, ,  
07/19/2018 05:58, 42, 89, 39 ,2, 3, NW, None, None, ,  
07/19/2018 05:56, 42, 89, 39 ,2, 3, NW, None, None, ,  
07/19/2018 05:48, 42, 94, 40 ,1, 1, NW, None, None, ,  
07/19/2018 05:41, 42, 91, 40 ,1, 3, NW, None, None, ,  
07/19/2018 05:38, 42, 91, 39 ,0, 3, NW, None, None, ,  
07/19/2018 05:28, 42, 97, 41 ,0, 0, W, None, None, ,  
07/19/2018 05:26, 42, 97, 41 ,0, 0, W, None, None, ,  
07/19/2018 05:18, 42, 97, 41 ,0, 0, S, None, None, ,  
07/19/2018 05:11, 42, 96, 41 ,0, 0, S, None, None, ,  
07/19/2018 05:08, 42, 96, 41 ,0, 0, S, None, None, ,  
07/19/2018 04:58, 43, 96, 42 ,0, 0, S, None, None, ,  
07/19/2018 04:56, 43, 96, 42 ,0, 0, S, None, None, ,  
07/19/2018 04:48, 43, 96, 42 ,0, 0, S, None, None, ,  
07/19/2018 04:41, 43, 96, 42 ,0, 0, S, None, None, ,  
07/19/2018 04:38, 43, 96, 42 ,0, 0, S, None, None, ,  
07/19/2018 04:28, 44, 95, 42 ,0, 0, S, None, None, ,  
07/19/2018 04:26, 44, 95, 42 ,0, 0, S, None, None, ,  
07/19/2018 04:18, 43, 95, 42 ,0, 0, SW, None, None, ,  
07/19/2018 04:11, 44, 95, 42 ,0, 0, S, None, None, ,  
07/19/2018 04:08, 44, 95, 43 ,0, 0, S, None, None, ,  
07/19/2018 03:57, 44, 95, 43 ,0, 0, S, None, None, ,  
07/19/2018 03:56, 44, 94, 43 ,0, 0, S, None, None, ,  
07/19/2018 03:47, 44, 94, 42 ,0, 0, S, None, None, ,  
07/19/2018 03:41, 45, 94, 43 ,0, 0, S, None, None, ,  
07/19/2018 03:37, 45, 94, 43 ,0, 2, S, None, None, ,  
07/19/2018 03:27, 45, 95, 43 ,0, 0, S, None, None, ,  
07/19/2018 03:26, 45, 95, 43 ,0, 0, S, None, None, ,  
07/19/2018 03:17, 45, 94, 43 ,0, 0, S, None, None, ,  
07/19/2018 03:11, 45, 93, 43 ,0, 0, SW, None, None, ,  
07/19/2018 03:07, 45, 93, 43 ,0, 0, S, None, None, ,  
07/19/2018 02:57, 46, 94, 44 ,0, 0, S, None, None, ,  
07/19/2018 02:56, 46, 93, 44 ,0, 0, S, None, None, ,  
07/19/2018 02:47, 46, 92, 44 ,0, 0, S, None, None, ,  
07/19/2018 02:37, 46, 91, 44 ,0, 0, S, None, None, ,  
07/19/2018 02:27, 47, 91, 44 ,0, 2, S, None, None, ,  
07/19/2018 02:17, 47, 89, 45 ,1, 2, NW, None, None, ,  
07/19/2018 02:11, 48, 90, 45 ,0, 1, NW, None, None, ,  
07/19/2018 02:07, 47, 90, 45 ,0, 2, NW, None, None, ,  
07/19/2018 01:57, 48, 90, 45 ,2, 3, SE, None, None, ,  
07/19/2018 01:47, 48, 90, 45 ,0, 0, S, None, None, ,  
07/19/2018 01:37, 48, 88, 45 ,0, 2, S, None, None, ,  
07/19/2018 01:27, 49, 87, 46 ,0, 4, SE, None, None, ,  
07/19/2018 01:17, 50, 87, 46 ,3, 3, NW, None, None, ,  
07/19/2018 01:06, 49, 87, 46 ,0, 2, SE, None, None, ,  
07/19/2018 00:56, 50, 87, 46 ,1, 2, SE, None, None, ,  
07/19/2018 00:46, 51, 86, 47 ,0, 0, S, None, None, ,  
07/19/2018 00:36, 51, 85, 47 ,0, 0, S, None, None, ,  
07/19/2018 00:26, 51, 85, 47 ,0, 0, S, None, None, ,  
07/19/2018 00:26, 51, 85, 47 ,0, 0, S, None, None, ,  
07/19/2018 00:16, 52, 83, 47 ,0, 4, S, None, None, ,  
07/19/2018 00:06, 53, 80, 47 ,0, 2, NW, None, None, ,  
07/18/2018 23:56, 53, 84, 48 ,0, 0, SW, None, None, ,  
07/18/2018 23:46, 53, 82, 48 ,1, 1, SW, None, None, ,  
07/18/2018 23:36, 53, 81, 48 ,0, 2, S, None, None, ,  
07/18/2018 23:26, 54, 82, 49 ,1, 1, S, None, None, ,  
07/18/2018 23:16, 54, 80, 48 ,0, 0, S, None, None, ,  
07/18/2018 23:11, 55, 79, 48 ,0, 0, S, None, None, ,  
07/18/2018 23:06, 55, 79, 49 ,0, 0, S, None, None, ,  
07/18/2018 22:56, 56, 78, 49 ,0, 1, NW, None, None, ,  
07/18/2018 22:56, 56, 78, 49 ,0, 1, S, None, None, ,  
07/18/2018 22:46, 56, 74, 48 ,1, 1, NW, None, None, ,  
07/18/2018 22:41, 56, 74, 48 ,0, 1, S, None, None, ,  
07/18/2018 22:36, 56, 74, 48 ,0, 2, N, None, None, ,  
07/18/2018 22:26, 57, 73, 48 ,0, 1, S, None, None, ,  
07/18/2018 22:15, 57, 74, 49 ,0, 0, S, None, None, ,  
07/18/2018 22:05, 58, 70, 49 ,0, 0, W, None, None, ,  
07/18/2018 21:56, 59, 69, 49 ,0, 2, S, None, None, ,  
07/18/2018 21:55, 59, 68, 49 ,0, 2, S, None, None, ,  
07/18/2018 21:45, 59, 69, 49 ,0, 2, NW, None, None, ,  
07/18/2018 21:41, 60, 69, 50 ,0, 2, S, None, None, ,  
07/18/2018 21:35, 60, 66, 49 ,0, 1, NW, None, None, ,  
07/18/2018 21:26, 62, 62, 49 ,0, 2, NW, None, None, ,  
07/18/2018 21:25, 62, 62, 49 ,0, 2, NW, None, None, ,  
07/18/2018 21:15, 62, 63, 50 ,0, 1, N, None, None, ,  
07/18/2018 21:11, 63, 62, 50 ,0, 1, NW, None, None, ,  
07/18/2018 21:05, 64, 64, 52 ,0, 2, S, None, None, ,  
07/18/2018 20:56, 64, 59, 50 ,0, 2, E, None, None, ,  
07/18/2018 20:55, 64, 60, 50 ,0, 2, SW, None, None, ,  
07/18/2018 20:45, 65, 62, 51 ,1, 4, SE, None, None, ,  
07/18/2018 20:41, 65, 58, 50 ,0, 4, SW, None, None, ,  
07/18/2018 20:35, 66, 55, 49 ,2, 4, N, None, None, ,  
07/18/2018 20:26, 66, 57, 51 ,1, 2, SW, None, None, ,  
07/18/2018 20:25, 66, 59, 52 ,1, 2, S, None, None, ,  
07/18/2018 20:15, 67, 52, 49 ,1, 2, N, None, None, ,  
07/18/2018 20:11, 68, 53, 51 ,1, 2, W, Yes, , ,  
07/18/2018 20:05, 68, 54, 51 ,1, 2, SE, None, None, ,  
07/18/2018 19:56, 68, 54, 51 ,0, 2, SW, None, None, ,  
07/18/2018 19:55, 68, 55, 52 ,1, 2, S, None, None, ,  
07/18/2018 19:45, 70, 49, 50 ,1, 2, NW, None, None, ,  
07/18/2018 19:41, 71, 48, 50 ,0, 1, W, None, None, ,  
07/18/2018 19:35, 71, 48, 51 ,0, 2, W, None, None, ,  
07/18/2018 19:26, 72, 40, 47 ,1, 1, NW, None, None, ,  
07/18/2018 19:25, 72, 43, 48 ,1, 1, N, None, None, ,  
07/18/2018 19:15, 73, 45, 50 ,0, 1, S, None, None, ,  
07/18/2018 19:11, 73, 43, 49 ,0, 1, NW, None, None, ,  
07/18/2018 19:05, 73, 45, 51 ,0, 1, S, None, None, ,  
07/18/2018 18:56, 73, 45, 51 ,0, 3, W, None, None, ,  
07/18/2018 18:54, 74, 44, 51 ,1, 3, NW, None, None, ,  
07/18/2018 18:44, 76, 40, 50 ,2, 2, NW, None, None, ,  
07/18/2018 18:41, 76, 36, 47 ,0, 2, NW, None, None, ,  
07/18/2018 18:34, 77, 31, 44 ,1, 6, NW, None, None, ,  
07/18/2018 18:26, 77, 31, 44 ,4, 9, NW, None, None, ,  
07/18/2018 18:24, 77, 29, 43 ,6, 9, NW, None, None, ,  
07/18/2018 18:14, 78, 28, 42 ,4, 11, NW, None, None, ,  
07/18/2018 18:11, 78, 24, 39 ,7, 14, NW, None, None, ,  
07/18/2018 18:04, 78, 24, 38 ,9, 15, NW, None, None, ,  
07/18/2018 17:56, 79, 24, 39 ,11, 15, NW, None, None, ,  
07/18/2018 17:54, 79, 24, 39 ,9, 12, NW, None, None, ,  
07/18/2018 17:44, 79, 28, 43 ,6, 13, NW, None, None, ,  
07/18/2018 17:42, 79, 27, 43 ,7, 14, NW, None, None, ,  
07/18/2018 17:34, 79, 26, 42 ,10, 19, NW, None, None, ,  
07/18/2018 17:26, 80, 33, 49 ,2, 7, SW, None, None, ,  
07/18/2018 17:24, 81, 27, 44 ,3, 7, SE, None, None, ,  
07/18/2018 17:14, 82, 25, 43 ,5, 7, S, None, None, ,  
07/18/2018 17:12, 82, 28, 46 ,5, 9, SE, None, None, ,  
07/18/2018 17:04, 79, 30, 45 ,7, 9, SE, None, None, ,  
07/18/2018 16:57, 75, 37, 48 ,6, 9, SE, None, None, ,  
07/18/2018 16:54, 75, 49, 55 ,4, 7, E, None, None, ,  
07/18/2018 16:44, 78, 35, 49 ,4, 9, SE, None, None, ,  
07/18/2018 16:42, 78, 28, 43 ,4, 9, SE, None, None, ,  
07/18/2018 16:34, 79, 25, 41 ,5, 6, SE, None, None, ,  
07/18/2018 16:27, 80, 24, 40 ,3, 12, S, None, None, ,  
07/18/2018 16:24, 80, 21, 38 ,5, 12, SE, None, None, ,  
07/18/2018 16:13, 82, 21, 38 ,8, 16, SE, None, None, ,  
07/18/2018 16:12, 82, 22, 40 ,9, 16, SE, None, None, ,  
07/18/2018 16:03, 82, 18, 36 ,7, 12, SE, None, None, ,  
07/18/2018 15:58, 83, 17, 35 ,7, 12, SE, None, None, ,  
07/18/2018 15:53, 85, 17, 36 ,6, 9, S, None, None, ,  
07/18/2018 15:43, 85, 17, 35 ,5, 9, S, None, None, ,  
07/18/2018 15:43, 85, 17, 35 ,4, 9, S, None, None, ,  
07/18/2018 15:33, 83, 17, 34 ,4, 11, SE, None, None, ,  
07/18/2018 15:23, 83, 17, 34 ,9, 16, S, None, None, ,  
07/18/2018 15:13, 82, 17, 33 ,12, 22, SE, None, None, ,  
07/18/2018 15:03, 81, 18, 34 ,14, 19, SE, None, None, ,  
07/18/2018 14:57, 81, 17, 34 ,12, 25, SE, None, None, ,  
07/18/2018 14:53, 81, 18, 34 ,13, 35, SE, None, None, ,  
07/18/2018 14:43, 83, 17, 35 ,12, 15, SE, None, None, ,  
07/18/2018 14:33, 83, 16, 33 ,7, 20, SE, None, None, ,  
07/18/2018 14:27, 84, 16, 33 ,15, 20, SE, None, None, ,  
07/18/2018 14:23, 84, 16, 34 ,10, 19, SE, None, None, ,  
07/18/2018 14:13, 83, 19, 36 ,3, 12, E, None, None, ,  
07/18/2018 14:03, 83, 20, 38 ,6, 14, N, None, None, ,  
07/18/2018 13:53, 82, 20, 37 ,6, 21, N, None, None, ,  
07/18/2018 13:42, 83, 18, 36 ,10, 19, SE, None, None, ,  
07/18/2018 13:32, 83, 18, 36 ,19, 26, E, None, None, ,  
07/18/2018 13:28, 83, 18, 37 ,12, 21, SE, None, None, ,  
Change End Date:

Copyright © 1998-2015 Vaisala, Inc.
All Rights Reserved
Send comments about the data to:
SCAN Web ® is a registered trademark of Vaisala, Inc.
SCAN Web Version 6.0